PWSweather.com
Personal Weather Stations
Station Observations
KOHAVON11
Long Road Station, Avon, OH 44011

Long Road StationAvon, OH 44011

Lat: 41.437, Lon: -82.0477

Elevation: 686

Station Type: Davis Vantage Pro2

http://www.avon-weather.com

High Low Average
Temperature 40.8°F4.9°F 38.5°F3.6°F 39.7°F4.3°F
Dew Point 37.3°F2.9°F 35.2°F1.8°F 36.3°F2.4°F
Winds 22.0 mph -35.4 mph - Calm Calm 7.1 mph 11.4 mph
Wind Gusts 29.0 mph46.7 mph -- 14.1 mph22.7 mph
Humidity 89% 86% 88%
Pressure 30.16 in1021.30 in 30.02 in1016.60 in -
Precipitation 2.95 in74.90 in - -
Hour Temp Dew Point Humidity Winds Wind Gusts Pressure Precip Precip Rate Daily Precip Total
12:03 AM 40.8°F4.9°C 36.9°F2.7°C 86% Calm Calm -- 30.14 in1020.7 mb 0.00 in0.0 mm 0.00 in0.0 mm 0.00 in0.0 mm
12:08 AM 40.6°F4.8°C 36.7°F2.6°C 86% Calm Calm -- 30.13 in1020.3 mb 0.00 in0.0 mm 0.00 in0.0 mm 0.00 in0.0 mm
12:13 AM 40.5°F4.7°C 36.6°F2.6°C 86% Calm Calm -- 30.13 in1020.3 mb 0.00 in0.0 mm 0.00 in0.0 mm 0.00 in0.0 mm
12:18 AM 40.4°F4.7°C 36.5°F2.5°C 86% Calm Calm -- 30.13 in1020.3 mb 0.00 in0.0 mm 0.00 in0.0 mm 0.00 in0.0 mm
12:23 AM 40.2°F4.6°C 36.3°F2.4°C 86% Calm Calm -- 30.13 in1020.3 mb 0.00 in0.0 mm 0.00 in0.0 mm 0.00 in0.0 mm
12:28 AM 40.1°F4.5°C 36.2°F2.3°C 86% Calm Calm -- 30.14 in1020.7 mb 0.00 in0.0 mm 0.00 in0.0 mm 0.00 in0.0 mm
12:33 AM 39.9°F4.4°C 36.1°F2.3°C 86% Calm Calm -- 30.13 in1020.3 mb 0.00 in0.0 mm 0.00 in0.0 mm 0.00 in0.0 mm
12:38 AM 39.8°F4.3°C 36.0°F2.2°C 86% Calm Calm 1.0 mph1.6 kmh 30.13 in1020.3 mb 0.00 in0.0 mm 0.00 in0.0 mm 0.00 in0.0 mm
12:43 AM 39.7°F4.3°C 35.9°F2.2°C 86% Calm Calm -- 30.13 in1020.3 mb 0.00 in0.0 mm 0.00 in0.0 mm 0.00 in0.0 mm
12:48 AM 39.6°F4.2°C 35.8°F2.1°C 86% Calm Calm -- 30.13 in1020.3 mb 0.00 in0.0 mm 0.00 in0.0 mm 0.00 in0.0 mm
12:53 AM 39.5°F4.2°C 35.7°F2.1°C 86% Calm Calm -- 30.12 in1020.0 mb 0.00 in0.0 mm 0.00 in0.0 mm 0.00 in0.0 mm
12:58 AM 39.4°F4.1°C 35.6°F2.0°C 86% Calm Calm -- 30.12 in1020.0 mb 0.00 in0.0 mm 0.00 in0.0 mm 0.00 in0.0 mm
01:03 AM 39.5°F4.2°C 35.7°F2.1°C 86% Calm Calm -- 30.11 in1019.6 mb 0.00 in0.0 mm 0.00 in0.0 mm 0.00 in0.0 mm
01:08 AM 39.5°F4.2°C 35.7°F2.1°C 86% Calm Calm -- 30.11 in1019.6 mb 0.00 in0.0 mm 0.00 in0.0 mm 0.00 in0.0 mm
01:13 AM 39.5°F4.2°C 35.7°F2.1°C 86% Calm Calm -- 30.10 in1019.3 mb 0.00 in0.0 mm 0.00 in0.0 mm 0.00 in0.0 mm
01:18 AM 39.5°F4.2°C 35.7°F2.1°C 86% Calm Calm 1.0 mph1.6 kmh 30.10 in1019.3 mb 0.00 in0.0 mm 0.00 in0.0 mm 0.00 in0.0 mm
01:23 AM 39.4°F4.1°C 35.6°F2.0°C 86% Calm Calm -- 30.10 in1019.3 mb 0.00 in0.0 mm 0.00 in0.0 mm 0.00 in0.0 mm
01:28 AM 39.4°F4.1°C 35.6°F2.0°C 86% Calm Calm -- 30.10 in1019.3 mb 0.00 in0.0 mm 0.00 in0.0 mm 0.00 in0.0 mm
01:33 AM 39.3°F4.1°C 35.5°F1.9°C 86% Calm Calm -- 30.10 in1019.3 mb 0.00 in0.0 mm 0.00 in0.0 mm 0.00 in0.0 mm
01:38 AM 39.2°F4.0°C 35.4°F1.9°C 86% Calm Calm -- 30.10 in1019.3 mb 0.00 in0.0 mm 0.00 in0.0 mm 0.00 in0.0 mm
01:43 AM 39.1°F3.9°C 35.3°F1.8°C 86% Calm Calm -- 30.10 in1019.3 mb 0.00 in0.0 mm 0.00 in0.0 mm 0.00 in0.0 mm
01:48 AM 39.0°F3.9°C 35.2°F1.8°C 86% Calm Calm -- 30.10 in1019.3 mb 0.00 in0.0 mm 0.00 in0.0 mm 0.00 in0.0 mm
01:53 AM 39.1°F3.9°C 35.3°F1.8°C 86% Calm Calm -- 30.10 in1019.3 mb 0.00 in0.0 mm 0.00 in0.0 mm 0.00 in0.0 mm
01:58 AM 39.2°F4.0°C 35.7°F2.1°C 87% Calm Calm 1.0 mph1.6 kmh 30.10 in1019.3 mb 0.00 in0.0 mm 0.00 in0.0 mm 0.00 in0.0 mm
02:03 AM 39.3°F4.1°C 35.8°F2.1°C 87% Calm Calm -- 30.10 in1019.3 mb 0.00 in0.0 mm 0.00 in0.0 mm 0.00 in0.0 mm
02:08 AM 39.4°F4.1°C 35.9°F2.2°C 87% Calm Calm -- 30.11 in1019.6 mb 0.00 in0.0 mm 0.00 in0.0 mm 0.00 in0.0 mm
02:13 AM 39.5°F4.2°C 36.0°F2.2°C 87% Calm Calm -- 30.12 in1020.0 mb 0.00 in0.0 mm 0.00 in0.0 mm 0.00 in0.0 mm
02:18 AM 39.6°F4.2°C 36.1°F2.3°C 87% Calm Calm -- 30.13 in1020.3 mb 0.00 in0.0 mm 0.00 in0.0 mm 0.00 in0.0 mm
02:23 AM 39.6°F4.2°C 36.1°F2.3°C 87% Calm Calm -- 30.13 in1020.3 mb 0.00 in0.0 mm 0.00 in0.0 mm 0.00 in0.0 mm
02:28 AM 39.5°F4.2°C 36.0°F2.2°C 87% Calm Calm -- 30.14 in1020.7 mb 0.00 in0.0 mm 0.00 in0.0 mm 0.00 in0.0 mm
02:33 AM 39.5°F4.2°C 36.0°F2.2°C 87% Calm Calm -- 30.15 in1021.0 mb 0.00 in0.0 mm 0.00 in0.0 mm 0.00 in0.0 mm
02:38 AM 39.5°F4.2°C 36.0°F2.2°C 87% Calm Calm -- 30.15 in1021.0 mb 0.00 in0.0 mm 0.00 in0.0 mm 0.00 in0.0 mm
02:43 AM 39.4°F4.1°C 35.9°F2.2°C 87% Calm Calm -- 30.15 in1021.0 mb 0.00 in0.0 mm 0.00 in0.0 mm 0.00 in0.0 mm
02:48 AM 39.4°F4.1°C 35.9°F2.2°C 87% Calm Calm -- 30.15 in1021.0 mb 0.00 in0.0 mm 0.00 in0.0 mm 0.00 in0.0 mm
02:53 AM 39.3°F4.1°C 35.8°F2.1°C 87% Calm Calm -- 30.15 in1021.0 mb 0.00 in0.0 mm 0.00 in0.0 mm 0.00 in0.0 mm
02:58 AM 39.3°F4.1°C 35.8°F2.1°C 87% Calm Calm -- 30.14 in1020.7 mb 0.00 in0.0 mm 0.00 in0.0 mm 0.00 in0.0 mm
03:03 AM 39.3°F4.1°C 35.8°F2.1°C 87% Calm Calm -- 30.14 in1020.7 mb 0.00 in0.0 mm 0.00 in0.0 mm 0.00 in0.0 mm
03:08 AM 39.4°F4.1°C 35.9°F2.2°C 87% Calm Calm -- 30.14 in1020.7 mb 0.00 in0.0 mm 0.00 in0.0 mm 0.00 in0.0 mm
03:13 AM 39.5°F4.2°C 36.3°F2.4°C 88% Calm Calm 1.0 mph1.6 kmh 30.14 in1020.7 mb 0.00 in0.0 mm 0.00 in0.0 mm 0.00 in0.0 mm
03:18 AM 39.6°F4.2°C 36.4°F2.4°C 88% Calm Calm -- 30.15 in1021.0 mb 0.00 in0.0 mm 0.00 in0.0 mm 0.00 in0.0 mm
03:23 AM 39.6°F4.2°C 36.4°F2.4°C 88% Calm Calm -- 30.15 in1021.0 mb 0.00 in0.0 mm 0.00 in0.0 mm 0.00 in0.0 mm
03:28 AM 39.6°F4.2°C 36.4°F2.4°C 88% Calm Calm -- 30.16 in1021.3 mb 0.00 in0.0 mm 0.00 in0.0 mm 0.00 in0.0 mm
03:33 AM 39.6°F4.2°C 36.4°F2.4°C 88% Calm Calm -- 30.16 in1021.3 mb 0.00 in0.0 mm 0.00 in0.0 mm 0.00 in0.0 mm
03:38 AM 39.6°F4.2°C 36.4°F2.4°C 88% Calm Calm -- 30.16 in1021.3 mb 0.00 in0.0 mm 0.00 in0.0 mm 0.00 in0.0 mm
03:43 AM 39.6°F4.2°C 36.4°F2.4°C 88% Calm Calm -- 30.16 in1021.3 mb 0.00 in0.0 mm 0.00 in0.0 mm 0.00 in0.0 mm
03:48 AM 39.6°F4.2°C 36.4°F2.4°C 88% Calm Calm -- 30.16 in1021.3 mb 0.00 in0.0 mm 0.00 in0.0 mm 0.00 in0.0 mm
03:53 AM 39.6°F4.2°C 36.4°F2.4°C 88% Calm Calm -- 30.16 in1021.3 mb 0.00 in0.0 mm 0.00 in0.0 mm 0.00 in0.0 mm
03:58 AM 39.6°F4.2°C 36.4°F2.4°C 88% Calm Calm 1.0 mph1.6 kmh 30.15 in1021.0 mb 0.00 in0.0 mm 0.00 in0.0 mm 0.00 in0.0 mm
04:03 AM 39.6°F4.2°C 36.4°F2.4°C 88% Calm Calm -- 30.14 in1020.7 mb 0.00 in0.0 mm 0.00 in0.0 mm 0.00 in0.0 mm
04:08 AM 39.8°F4.3°C 36.5°F2.5°C 88% Calm Calm -- 30.14 in1020.7 mb 0.00 in0.0 mm 0.00 in0.0 mm 0.00 in0.0 mm
04:13 AM 39.9°F4.4°C 36.6°F2.6°C 88% Calm Calm -- 30.14 in1020.7 mb 0.00 in0.0 mm 0.00 in0.0 mm 0.00 in0.0 mm
04:18 AM 40.0°F4.4°C 36.7°F2.6°C 88% Calm Calm -- 30.14 in1020.7 mb 0.00 in0.0 mm 0.00 in0.0 mm 0.00 in0.0 mm
04:23 AM 40.0°F4.4°C 36.7°F2.6°C 88% Calm Calm -- 30.14 in1020.7 mb 0.00 in0.0 mm 0.00 in0.0 mm 0.00 in0.0 mm
04:28 AM 39.9°F4.4°C 36.6°F2.6°C 88% Calm Calm -- 30.13 in1020.3 mb 0.00 in0.0 mm 0.00 in0.0 mm 0.00 in0.0 mm
04:33 AM 39.9°F4.4°C 36.6°F2.6°C 88% Calm Calm -- 30.13 in1020.3 mb 0.00 in0.0 mm 0.00 in0.0 mm 0.00 in0.0 mm
04:38 AM 39.8°F4.3°C 36.5°F2.5°C 88% Calm Calm 2.0 mph3.2 kmh 30.13 in1020.3 mb 0.00 in0.0 mm 0.00 in0.0 mm 0.00 in0.0 mm
04:43 AM 40.0°F4.4°C 36.7°F2.6°C 88% Calm Calm 4.0 mph6.4 kmh 30.13 in1020.3 mb 0.00 in0.0 mm 0.00 in0.0 mm 0.00 in0.0 mm
04:48 AM 40.1°F4.5°C 36.8°F2.7°C 88% Calm Calm 2.0 mph3.2 kmh 30.13 in1020.3 mb 0.00 in0.0 mm 0.00 in0.0 mm 0.00 in0.0 mm
04:53 AM 40.2°F4.6°C 36.9°F2.7°C 88% Calm Calm -- 30.13 in1020.3 mb 0.00 in0.0 mm 0.00 in0.0 mm 0.00 in0.0 mm
04:58 AM 40.3°F4.6°C 37.0°F2.8°C 88% 1.0 mph NE1.6 kmh NE 1.0 mph1.6 kmh 30.13 in1020.3 mb 0.00 in0.0 mm 0.00 in0.0 mm 0.00 in0.0 mm
05:03 AM 40.3°F4.6°C 37.0°F2.8°C 88% 3.0 mph NE4.8 kmh NE 6.0 mph9.7 kmh 30.13 in1020.3 mb 0.00 in0.0 mm 0.00 in0.0 mm 0.00 in0.0 mm
05:08 AM 40.4°F4.7°C 37.1°F2.8°C 88% Calm Calm 6.0 mph9.7 kmh 30.14 in1020.7 mb 0.00 in0.0 mm 0.00 in0.0 mm 0.00 in0.0 mm
05:13 AM 40.4°F4.7°C 37.1°F2.8°C 88% Calm Calm 7.0 mph11.3 kmh 30.14 in1020.7 mb 0.00 in0.0 mm 0.00 in0.0 mm 0.00 in0.0 mm
05:18 AM 40.4°F4.7°C 37.1°F2.8°C 88% Calm Calm 7.0 mph11.3 kmh 30.13 in1020.3 mb 0.00 in0.0 mm 0.00 in0.0 mm 0.00 in0.0 mm
05:23 AM 40.3°F4.6°C 37.0°F2.8°C 88% Calm Calm 3.0 mph4.8 kmh 30.13 in1020.3 mb 0.00 in0.0 mm 0.00 in0.0 mm 0.00 in0.0 mm
05:28 AM 40.3°F4.6°C 37.0°F2.8°C 88% 6.0 mph NE9.7 kmh NE 7.0 mph11.3 kmh 30.13 in1020.3 mb 0.00 in0.0 mm 0.00 in0.0 mm 0.00 in0.0 mm
05:33 AM 40.2°F4.6°C 36.9°F2.7°C 88% Calm Calm 7.0 mph11.3 kmh 30.12 in1020.0 mb 0.00 in0.0 mm 0.00 in0.0 mm 0.00 in0.0 mm
05:38 AM 40.2°F4.6°C 37.2°F2.9°C 89% 3.0 mph NNE4.8 kmh NNE 7.0 mph11.3 kmh 30.12 in1020.0 mb 0.00 in0.0 mm 0.00 in0.0 mm 0.00 in0.0 mm
05:43 AM 40.1°F4.5°C 37.1°F2.8°C 89% 2.0 mph ENE3.2 kmh ENE 7.0 mph11.3 kmh 30.12 in1020.0 mb 0.00 in0.0 mm 0.00 in0.0 mm 0.00 in0.0 mm
05:48 AM 40.0°F4.4°C 37.0°F2.8°C 89% Calm Calm 10.0 mph16.1 kmh 30.11 in1019.6 mb 0.00 in0.0 mm 0.00 in0.0 mm 0.00 in0.0 mm
05:53 AM 40.0°F4.4°C 36.7°F2.6°C 88% 3.0 mph NE4.8 kmh NE 10.0 mph16.1 kmh 30.10 in1019.3 mb 0.00 in0.0 mm 0.00 in0.0 mm 0.00 in0.0 mm
05:58 AM 39.9°F4.4°C 36.6°F2.6°C 88% 4.0 mph NE6.4 kmh NE 10.0 mph16.1 kmh 30.10 in1019.3 mb 0.00 in0.0 mm 0.00 in0.0 mm 0.00 in0.0 mm
06:03 AM 39.8°F4.3°C 36.8°F2.7°C 89% 3.0 mph NE4.8 kmh NE 10.0 mph16.1 kmh 30.09 in1019.0 mb 0.00 in0.0 mm 0.00 in0.0 mm 0.00 in0.0 mm
06:08 AM 39.8°F4.3°C 36.8°F2.7°C 89% Calm Calm 10.0 mph16.1 kmh 30.10 in1019.3 mb 0.00 in0.0 mm 0.00 in0.0 mm 0.00 in0.0 mm
06:13 AM 39.8°F4.3°C 36.8°F2.7°C 89% 5.0 mph NE8.0 kmh NE 10.0 mph16.1 kmh 30.10 in1019.3 mb 0.00 in0.0 mm 0.00 in0.0 mm 0.00 in0.0 mm
06:18 AM 39.9°F4.4°C 36.9°F2.7°C 89% 6.0 mph NE9.7 kmh NE 12.0 mph19.3 kmh 30.11 in1019.6 mb 0.00 in0.0 mm 0.00 in0.0 mm 0.00 in0.0 mm
06:23 AM 39.9°F4.4°C 36.9°F2.7°C 89% Calm Calm 12.0 mph19.3 kmh 30.12 in1020.0 mb 0.00 in0.0 mm 0.00 in0.0 mm 0.00 in0.0 mm
06:28 AM 40.0°F4.4°C 37.0°F2.8°C 89% 4.0 mph ENE6.4 kmh ENE 12.0 mph19.3 kmh 30.12 in1020.0 mb 0.00 in0.0 mm 0.00 in0.0 mm 0.00 in0.0 mm
06:33 AM 40.0°F4.4°C 37.0°F2.8°C 89% 2.0 mph NE3.2 kmh NE 12.0 mph19.3 kmh 30.13 in1020.3 mb 0.00 in0.0 mm 0.00 in0.0 mm 0.00 in0.0 mm
06:38 AM 40.1°F4.5°C 37.1°F2.8°C 89% Calm Calm 10.0 mph16.1 kmh 30.13 in1020.3 mb 0.00 in0.0 mm 0.00 in0.0 mm 0.00 in0.0 mm
06:43 AM 40.1°F4.5°C 37.1°F2.8°C 89% Calm Calm 3.0 mph4.8 kmh 30.14 in1020.7 mb 0.00 in0.0 mm 0.00 in0.0 mm 0.00 in0.0 mm
06:48 AM 40.1°F4.5°C 37.1°F2.8°C 89% 1.0 mph E1.6 kmh E 3.0 mph4.8 kmh 30.14 in1020.7 mb 0.00 in0.0 mm 0.00 in0.0 mm 0.00 in0.0 mm
06:53 AM 40.1°F4.5°C 37.1°F2.8°C 89% 1.0 mph ENE1.6 kmh ENE 8.0 mph12.9 kmh 30.14 in1020.7 mb 0.00 in0.0 mm 0.00 in0.0 mm 0.00 in0.0 mm
06:58 AM 40.2°F4.6°C 37.2°F2.9°C 89% 5.0 mph NE8.0 kmh NE 7.0 mph11.3 kmh 30.13 in1020.3 mb 0.00 in0.0 mm 0.00 in0.0 mm 0.00 in0.0 mm
07:03 AM 40.3°F4.6°C 37.3°F2.9°C 89% 3.0 mph NE4.8 kmh NE 9.0 mph14.5 kmh 30.13 in1020.3 mb 0.00 in0.0 mm 0.00 in0.0 mm 0.00 in0.0 mm
07:08 AM 40.3°F4.6°C 37.3°F2.9°C 89% 1.0 mph NE1.6 kmh NE 1.0 mph1.6 kmh 30.13 in1020.3 mb 0.00 in0.0 mm 0.00 in0.0 mm 0.00 in0.0 mm
07:13 AM 40.3°F4.6°C 37.3°F2.9°C 89% Calm Calm 7.0 mph11.3 kmh 30.13 in1020.3 mb 0.00 in0.0 mm 0.00 in0.0 mm 0.00 in0.0 mm
07:18 AM 40.3°F4.6°C 37.3°F2.9°C 89% 3.0 mph NE4.8 kmh NE 9.0 mph14.5 kmh 30.13 in1020.3 mb 0.00 in0.0 mm 0.00 in0.0 mm 0.00 in0.0 mm
07:23 AM 40.3°F4.6°C 37.3°F2.9°C 89% 4.0 mph NE6.4 kmh NE 9.0 mph14.5 kmh 30.13 in1020.3 mb 0.00 in0.0 mm 0.00 in0.0 mm 0.00 in0.0 mm
07:28 AM 40.2°F4.6°C 37.2°F2.9°C 89% Calm Calm 9.0 mph14.5 kmh 30.14 in1020.7 mb 0.00 in0.0 mm 0.00 in0.0 mm 0.00 in0.0 mm
07:33 AM 40.2°F4.6°C 37.2°F2.9°C 89% 4.0 mph ENE6.4 kmh ENE 9.0 mph14.5 kmh 30.13 in1020.3 mb 0.00 in0.0 mm 0.00 in0.0 mm 0.00 in0.0 mm
07:38 AM 40.1°F4.5°C 37.1°F2.8°C 89% Calm Calm 11.0 mph17.7 kmh 30.14 in1020.7 mb 0.00 in0.0 mm 0.00 in0.0 mm 0.00 in0.0 mm
07:43 AM 40.0°F4.4°C 37.0°F2.8°C 89% 5.0 mph ENE8.0 kmh ENE 13.0 mph20.9 kmh 30.14 in1020.7 mb 0.00 in0.0 mm 0.00 in0.0 mm 0.00 in0.0 mm
07:48 AM 40.0°F4.4°C 37.0°F2.8°C 89% 3.0 mph ENE4.8 kmh ENE 13.0 mph20.9 kmh 30.13 in1020.3 mb 0.00 in0.0 mm 0.00 in0.0 mm 0.00 in0.0 mm
07:53 AM 40.0°F4.4°C 37.0°F2.8°C 89% 7.0 mph ENE11.3 kmh ENE 13.0 mph20.9 kmh 30.13 in1020.3 mb 0.00 in0.0 mm 0.00 in0.0 mm 0.00 in0.0 mm
07:58 AM 39.9°F4.4°C 36.9°F2.7°C 89% 13.0 mph NE20.9 kmh NE 13.0 mph20.9 kmh 30.14 in1020.7 mb 0.00 in0.0 mm 0.00 in0.0 mm 0.00 in0.0 mm
08:03 AM 39.8°F4.3°C 36.8°F2.7°C 89% 8.0 mph ENE12.9 kmh ENE 14.0 mph22.5 kmh 30.14 in1020.7 mb 0.00 in0.0 mm 0.00 in0.0 mm 0.00 in0.0 mm
08:08 AM 39.7°F4.3°C 36.7°F2.6°C 89% 3.0 mph ENE4.8 kmh ENE 19.0 mph30.6 kmh 30.14 in1020.7 mb 0.00 in0.0 mm 0.00 in0.0 mm 0.00 in0.0 mm
08:13 AM 39.6°F4.2°C 36.6°F2.6°C 89% 7.0 mph NE11.3 kmh NE 19.0 mph30.6 kmh 30.13 in1020.3 mb 0.00 in0.0 mm 0.00 in0.0 mm 0.00 in0.0 mm
08:18 AM 39.5°F4.2°C 36.5°F2.5°C 89% 4.0 mph ENE6.4 kmh ENE 19.0 mph30.6 kmh 30.13 in1020.3 mb 0.00 in0.0 mm 0.00 in0.0 mm 0.00 in0.0 mm
08:23 AM 39.5°F4.2°C 36.5°F2.5°C 89% 10.0 mph NE16.1 kmh NE 19.0 mph30.6 kmh 30.13 in1020.3 mb 0.00 in0.0 mm 0.00 in0.0 mm 0.00 in0.0 mm
08:28 AM 39.5°F4.2°C 36.5°F2.5°C 89% 11.0 mph NE17.7 kmh NE 20.0 mph32.2 kmh 30.13 in1020.3 mb 0.00 in0.0 mm 0.00 in0.0 mm 0.00 in0.0 mm
08:33 AM 39.4°F4.1°C 36.4°F2.4°C 89% 8.0 mph NE12.9 kmh NE 20.0 mph32.2 kmh 30.14 in1020.7 mb 0.00 in0.0 mm 0.00 in0.0 mm 0.00 in0.0 mm
08:38 AM 39.4°F4.1°C 36.4°F2.4°C 89% 7.0 mph NE11.3 kmh NE 20.0 mph32.2 kmh 30.14 in1020.7 mb 0.00 in0.0 mm 0.00 in0.0 mm 0.00 in0.0 mm
08:43 AM 39.4°F4.1°C 36.4°F2.4°C 89% 10.0 mph NE16.1 kmh NE 20.0 mph32.2 kmh 30.13 in1020.3 mb 0.00 in0.0 mm 0.00 in0.0 mm 0.00 in0.0 mm
08:48 AM 39.4°F4.1°C 36.4°F2.4°C 89% 11.0 mph NE17.7 kmh NE 15.0 mph24.1 kmh 30.13 in1020.3 mb 0.00 in0.0 mm 0.00 in0.0 mm 0.00 in0.0 mm
08:53 AM 39.4°F4.1°C 36.4°F2.4°C 89% 8.0 mph NE12.9 kmh NE 20.0 mph32.2 kmh 30.12 in1020.0 mb 0.00 in0.0 mm 0.00 in0.0 mm 0.00 in0.0 mm
08:58 AM 39.3°F4.1°C 36.4°F2.4°C 89% 13.0 mph NE20.9 kmh NE 20.0 mph32.2 kmh 30.12 in1020.0 mb 0.00 in0.0 mm 0.00 in0.0 mm 0.00 in0.0 mm
09:03 AM 39.3°F4.1°C 36.4°F2.4°C 89% 11.0 mph NE17.7 kmh NE 20.0 mph32.2 kmh 30.13 in1020.3 mb 0.00 in0.0 mm 0.00 in0.0 mm 0.00 in0.0 mm
09:08 AM 39.2°F4.0°C 36.3°F2.4°C 89% 12.0 mph NE19.3 kmh NE 20.0 mph32.2 kmh 30.12 in1020.0 mb 0.00 in0.0 mm 0.00 in0.0 mm 0.00 in0.0 mm
09:13 AM 39.2°F4.0°C 36.3°F2.4°C 89% 7.0 mph NE11.3 kmh NE 18.0 mph29.0 kmh 30.13 in1020.3 mb 0.00 in0.0 mm 0.00 in0.0 mm 0.00 in0.0 mm
09:18 AM 39.2°F4.0°C 36.3°F2.4°C 89% 12.0 mph ENE19.3 kmh ENE 18.0 mph29.0 kmh 30.13 in1020.3 mb 0.00 in0.0 mm 0.00 in0.0 mm 0.00 in0.0 mm
09:23 AM 39.2°F4.0°C 36.3°F2.4°C 89% 7.0 mph ENE11.3 kmh ENE 17.0 mph27.4 kmh 30.14 in1020.7 mb 0.00 in0.0 mm 0.00 in0.0 mm 0.00 in0.0 mm
09:28 AM 39.1°F3.9°C 36.2°F2.3°C 89% 10.0 mph NE16.1 kmh NE 17.0 mph27.4 kmh 30.13 in1020.3 mb 0.00 in0.0 mm 0.00 in0.0 mm 0.00 in0.0 mm
09:33 AM 39.1°F3.9°C 36.2°F2.3°C 89% 10.0 mph NE16.1 kmh NE 16.0 mph25.7 kmh 30.14 in1020.7 mb 0.00 in0.0 mm 0.00 in0.0 mm 0.00 in0.0 mm
09:38 AM 39.1°F3.9°C 36.2°F2.3°C 89% 7.0 mph NNE11.3 kmh NNE 16.0 mph25.7 kmh 30.14 in1020.7 mb 0.00 in0.0 mm 0.00 in0.0 mm 0.00 in0.0 mm
09:43 AM 39.1°F3.9°C 36.2°F2.3°C 89% 6.0 mph NNE9.7 kmh NNE 16.0 mph25.7 kmh 30.14 in1020.7 mb 0.00 in0.0 mm 0.00 in0.0 mm 0.00 in0.0 mm
09:48 AM 39.1°F3.9°C 36.2°F2.3°C 89% 5.0 mph NE8.0 kmh NE 16.0 mph25.7 kmh 30.15 in1021.0 mb 0.00 in0.0 mm 0.00 in0.0 mm 0.00 in0.0 mm
09:53 AM 39.1°F3.9°C 36.2°F2.3°C 89% 5.0 mph ENE8.0 kmh ENE 14.0 mph22.5 kmh 30.15 in1021.0 mb 0.00 in0.0 mm 0.00 in0.0 mm 0.00 in0.0 mm
09:58 AM 39.1°F3.9°C 36.2°F2.3°C 89% 6.0 mph NE9.7 kmh NE 15.0 mph24.1 kmh 30.13 in1020.3 mb 0.00 in0.0 mm 0.00 in0.0 mm 0.00 in0.0 mm
10:03 AM 39.1°F3.9°C 36.2°F2.3°C 89% 11.0 mph NE17.7 kmh NE 15.0 mph24.1 kmh 30.13 in1020.3 mb 0.00 in0.0 mm 0.00 in0.0 mm 0.00 in0.0 mm
10:08 AM 39.0°F3.9°C 36.1°F2.3°C 89% 7.0 mph NE11.3 kmh NE 15.0 mph24.1 kmh 30.13 in1020.3 mb 0.00 in0.0 mm 0.00 in0.0 mm 0.00 in0.0 mm
10:13 AM 39.0°F3.9°C 36.1°F2.3°C 89% 10.0 mph ENE16.1 kmh ENE 15.0 mph24.1 kmh 30.12 in1020.0 mb 0.00 in0.0 mm 0.00 in0.0 mm 0.00 in0.0 mm
10:18 AM 39.0°F3.9°C 36.1°F2.3°C 89% 9.0 mph ENE14.5 kmh ENE 15.0 mph24.1 kmh 30.12 in1020.0 mb 0.00 in0.0 mm 0.00 in0.0 mm 0.00 in0.0 mm
10:23 AM 39.1°F3.9°C 36.2°F2.3°C 89% 8.0 mph NE12.9 kmh NE 16.0 mph25.7 kmh 30.11 in1019.6 mb 0.00 in0.0 mm 0.00 in0.0 mm 0.00 in0.0 mm
10:28 AM 39.2°F4.0°C 36.3°F2.4°C 89% 11.0 mph NE17.7 kmh NE 16.0 mph25.7 kmh 30.11 in1019.6 mb 0.00 in0.0 mm 0.00 in0.0 mm 0.00 in0.0 mm
10:33 AM 39.3°F4.1°C 36.4°F2.4°C 89% 8.0 mph NE12.9 kmh NE 16.0 mph25.7 kmh 30.10 in1019.3 mb 0.00 in0.0 mm 0.00 in0.0 mm 0.00 in0.0 mm
10:38 AM 39.4°F4.1°C 36.4°F2.4°C 89% 8.0 mph NE12.9 kmh NE 16.0 mph25.7 kmh 30.10 in1019.3 mb 0.00 in0.0 mm 0.00 in0.0 mm 0.00 in0.0 mm
10:43 AM 39.4°F4.1°C 36.4°F2.4°C 89% 13.0 mph NE20.9 kmh NE 16.0 mph25.7 kmh 30.10 in1019.3 mb 0.00 in0.0 mm 0.00 in0.0 mm 0.00 in0.0 mm
10:48 AM 39.5°F4.2°C 36.3°F2.4°C 88% 12.0 mph ENE19.3 kmh ENE 17.0 mph27.4 kmh 30.10 in1019.3 mb 0.00 in0.0 mm 0.00 in0.0 mm 0.00 in0.0 mm
10:53 AM 39.6°F4.2°C 36.4°F2.4°C 88% 7.0 mph NE11.3 kmh NE 17.0 mph27.4 kmh 30.09 in1019.0 mb 0.00 in0.0 mm 0.00 in0.0 mm 0.00 in0.0 mm
10:58 AM 39.7°F4.3°C 36.5°F2.5°C 88% 11.0 mph E17.7 kmh E 17.0 mph27.4 kmh 30.09 in1019.0 mb 0.00 in0.0 mm 0.00 in0.0 mm 0.00 in0.0 mm
11:03 AM 39.8°F4.3°C 36.5°F2.5°C 88% 8.0 mph ENE12.9 kmh ENE 17.0 mph27.4 kmh 30.09 in1019.0 mb 0.00 in0.0 mm 0.00 in0.0 mm 0.00 in0.0 mm
11:08 AM 39.9°F4.4°C 36.6°F2.6°C 88% 7.0 mph NE11.3 kmh NE 14.0 mph22.5 kmh 30.09 in1019.0 mb 0.00 in0.0 mm 0.00 in0.0 mm 0.00 in0.0 mm
11:13 AM 40.0°F4.4°C 36.7°F2.6°C 88% 7.0 mph NE11.3 kmh NE 14.0 mph22.5 kmh 30.09 in1019.0 mb 0.00 in0.0 mm 0.00 in0.0 mm 0.00 in0.0 mm
11:18 AM 40.1°F4.5°C 36.8°F2.7°C 88% 8.0 mph NE12.9 kmh NE 13.0 mph20.9 kmh 30.09 in1019.0 mb 0.00 in0.0 mm 0.00 in0.0 mm 0.00 in0.0 mm
11:23 AM 40.1°F4.5°C 36.8°F2.7°C 88% 7.0 mph ENE11.3 kmh ENE 13.0 mph20.9 kmh 30.09 in1019.0 mb 0.00 in0.0 mm 0.00 in0.0 mm 0.00 in0.0 mm
11:28 AM 40.1°F4.5°C 36.8°F2.7°C 88% 7.0 mph NE11.3 kmh NE 13.0 mph20.9 kmh 30.09 in1019.0 mb 0.00 in0.0 mm 0.00 in0.0 mm 0.00 in0.0 mm
11:33 AM 40.1°F4.5°C 36.5°F2.5°C 87% 2.0 mph NNE3.2 kmh NNE 13.0 mph20.9 kmh 30.08 in1018.6 mb 0.00 in0.0 mm 0.00 in0.0 mm 0.00 in0.0 mm
11:38 AM 40.1°F4.5°C 36.5°F2.5°C 87% 10.0 mph NE16.1 kmh NE 11.0 mph17.7 kmh 30.08 in1018.6 mb 0.00 in0.0 mm 0.00 in0.0 mm 0.00 in0.0 mm
11:43 AM 40.2°F4.6°C 36.6°F2.6°C 87% 10.0 mph ENE16.1 kmh ENE 12.0 mph19.3 kmh 30.08 in1018.6 mb 0.00 in0.0 mm 0.00 in0.0 mm 0.00 in0.0 mm
11:48 AM 40.2°F4.6°C 36.6°F2.6°C 87% 7.0 mph ENE11.3 kmh ENE 12.0 mph19.3 kmh 30.08 in1018.6 mb 0.00 in0.0 mm 0.00 in0.0 mm 0.00 in0.0 mm
11:53 AM 40.3°F4.6°C 36.7°F2.6°C 87% 5.0 mph NE8.0 kmh NE 12.0 mph19.3 kmh 30.08 in1018.6 mb 0.00 in0.0 mm 0.00 in0.0 mm 0.00 in0.0 mm
11:58 AM 40.3°F4.6°C 36.7°F2.6°C 87% 9.0 mph ENE14.5 kmh ENE 12.0 mph19.3 kmh 30.09 in1019.0 mb 0.00 in0.0 mm 0.00 in0.0 mm 0.00 in0.0 mm
12:03 PM 40.4°F4.7°C 36.8°F2.7°C 87% 5.0 mph NE8.0 kmh NE 12.0 mph19.3 kmh 30.09 in1019.0 mb 0.00 in0.0 mm 0.00 in0.0 mm 0.00 in0.0 mm
12:08 PM 40.5°F4.7°C 36.9°F2.7°C 87% 5.0 mph NE8.0 kmh NE 13.0 mph20.9 kmh 30.08 in1018.6 mb 0.00 in0.0 mm 0.00 in0.0 mm 0.00 in0.0 mm
12:13 PM 40.5°F4.7°C 36.9°F2.7°C 87% 4.0 mph ENE6.4 kmh ENE 15.0 mph24.1 kmh 30.08 in1018.6 mb 0.00 in0.0 mm 0.00 in0.0 mm 0.00 in0.0 mm
12:18 PM 40.5°F4.7°C 36.9°F2.7°C 87% 5.0 mph ENE8.0 kmh ENE 15.0 mph24.1 kmh 30.08 in1018.6 mb 0.00 in0.0 mm 0.00 in0.0 mm 0.00 in0.0 mm
12:23 PM 40.6°F4.8°C 37.0°F2.8°C 87% 7.0 mph NE11.3 kmh NE 15.0 mph24.1 kmh 30.08 in1018.6 mb 0.00 in0.0 mm 0.00 in0.0 mm 0.00 in0.0 mm
12:28 PM 40.6°F4.8°C 37.0°F2.8°C 87% 10.0 mph NE16.1 kmh NE 15.0 mph24.1 kmh 30.08 in1018.6 mb 0.00 in0.0 mm 0.00 in0.0 mm 0.00 in0.0 mm
12:33 PM 40.6°F4.8°C 37.0°F2.8°C 87% 7.0 mph ENE11.3 kmh ENE 11.0 mph17.7 kmh 30.07 in1018.3 mb 0.00 in0.0 mm 0.00 in0.0 mm 0.00 in0.0 mm
12:38 PM 40.6°F4.8°C 37.0°F2.8°C 87% 5.0 mph ENE8.0 kmh ENE 13.0 mph20.9 kmh 30.07 in1018.3 mb 0.00 in0.0 mm 0.00 in0.0 mm 0.00 in0.0 mm
12:43 PM 40.6°F4.8°C 36.7°F2.6°C 86% 3.0 mph NE4.8 kmh NE 13.0 mph20.9 kmh 30.07 in1018.3 mb 0.00 in0.0 mm 0.00 in0.0 mm 0.00 in0.0 mm
12:48 PM 40.6°F4.8°C 36.7°F2.6°C 86% 5.0 mph NNE8.0 kmh NNE 13.0 mph20.9 kmh 30.06 in1017.9 mb 0.00 in0.0 mm 0.00 in0.0 mm 0.00 in0.0 mm
12:53 PM 40.6°F4.8°C 36.7°F2.6°C 86% 7.0 mph NE11.3 kmh NE 13.0 mph20.9 kmh 30.05 in1017.6 mb 0.00 in0.0 mm 0.00 in0.0 mm 0.00 in0.0 mm
12:58 PM 40.6°F4.8°C 36.7°F2.6°C 86% 4.0 mph NE6.4 kmh NE 12.0 mph19.3 kmh 30.05 in1017.6 mb 0.00 in0.0 mm 0.00 in0.0 mm 0.00 in0.0 mm
01:03 PM 40.7°F4.8°C 36.8°F2.7°C 86% 8.0 mph NE12.9 kmh NE 12.0 mph19.3 kmh 30.04 in1017.3 mb 0.00 in0.0 mm 0.00 in0.0 mm 0.00 in0.0 mm
01:08 PM 40.7°F4.8°C 36.8°F2.7°C 86% 5.0 mph ENE8.0 kmh ENE 12.0 mph19.3 kmh 30.04 in1017.3 mb 0.00 in0.0 mm 0.00 in0.0 mm 0.00 in0.0 mm
01:13 PM 40.7°F4.8°C 36.8°F2.7°C 86% 5.0 mph NE8.0 kmh NE 12.0 mph19.3 kmh 30.05 in1017.6 mb 0.00 in0.0 mm 0.00 in0.0 mm 0.00 in0.0 mm
01:18 PM 40.7°F4.8°C 36.8°F2.7°C 86% 8.0 mph NE12.9 kmh NE 16.0 mph25.7 kmh 30.05 in1017.6 mb 0.00 in0.0 mm 0.00 in0.0 mm 0.00 in0.0 mm
01:23 PM 40.7°F4.8°C 36.8°F2.7°C 86% 4.0 mph ENE6.4 kmh ENE 16.0 mph25.7 kmh 30.05 in1017.6 mb 0.00 in0.0 mm 0.00 in0.0 mm 0.00 in0.0 mm
01:28 PM 40.7°F4.8°C 36.8°F2.7°C 86% 8.0 mph ENE12.9 kmh ENE 16.0 mph25.7 kmh 30.05 in1017.6 mb 0.00 in0.0 mm 0.00 in0.0 mm 0.00 in0.0 mm
01:33 PM 40.7°F4.8°C 36.8°F2.7°C 86% 5.0 mph ENE8.0 kmh ENE 16.0 mph25.7 kmh 30.06 in1017.9 mb 0.00 in0.0 mm 0.00 in0.0 mm 0.00 in0.0 mm
01:38 PM 40.7°F4.8°C 36.8°F2.7°C 86% 4.0 mph ENE6.4 kmh ENE 11.0 mph17.7 kmh 30.05 in1017.6 mb 0.00 in0.0 mm 0.00 in0.0 mm 0.00 in0.0 mm
01:43 PM 40.7°F4.8°C 36.8°F2.7°C 86% 7.0 mph NE11.3 kmh NE 11.0 mph17.7 kmh 30.06 in1017.9 mb 0.00 in0.0 mm 0.00 in0.0 mm 0.00 in0.0 mm
01:48 PM 40.7°F4.8°C 36.8°F2.7°C 86% 5.0 mph ENE8.0 kmh ENE 11.0 mph17.7 kmh 30.06 in1017.9 mb 0.00 in0.0 mm 0.00 in0.0 mm 0.00 in0.0 mm
01:53 PM 40.7°F4.8°C 36.8°F2.7°C 86% 6.0 mph NE9.7 kmh NE 11.0 mph17.7 kmh 30.06 in1017.9 mb 0.00 in0.0 mm 0.00 in0.0 mm 0.00 in0.0 mm
01:58 PM 40.7°F4.8°C 36.8°F2.7°C 86% 6.0 mph NE9.7 kmh NE 11.0 mph17.7 kmh 30.06 in1017.9 mb 0.00 in0.0 mm 0.00 in0.0 mm 0.00 in0.0 mm
02:03 PM 40.6°F4.8°C 36.7°F2.6°C 86% 9.0 mph NE14.5 kmh NE 12.0 mph19.3 kmh 30.05 in1017.6 mb 0.00 in0.0 mm 0.00 in0.0 mm 0.00 in0.0 mm
02:08 PM 40.6°F4.8°C 36.7°F2.6°C 86% 8.0 mph NE12.9 kmh NE 14.0 mph22.5 kmh 30.05 in1017.6 mb 0.00 in0.0 mm 0.00 in0.0 mm 0.00 in0.0 mm
02:13 PM 40.6°F4.8°C 36.7°F2.6°C 86% 9.0 mph NE14.5 kmh NE 14.0 mph22.5 kmh 30.04 in1017.3 mb 0.00 in0.0 mm 0.00 in0.0 mm 0.00 in0.0 mm
02:18 PM 40.5°F4.7°C 36.6°F2.6°C 86% 8.0 mph E12.9 kmh E 14.0 mph22.5 kmh 30.04 in1017.3 mb 0.00 in0.0 mm 0.00 in0.0 mm 0.00 in0.0 mm
02:23 PM 40.5°F4.7°C 36.6°F2.6°C 86% 3.0 mph E4.8 kmh E 14.0 mph22.5 kmh 30.04 in1017.3 mb 0.00 in0.0 mm 0.00 in0.0 mm 0.00 in0.0 mm
02:28 PM 40.5°F4.7°C 36.6°F2.6°C 86% 8.0 mph NE12.9 kmh NE 12.0 mph19.3 kmh 30.04 in1017.3 mb 0.00 in0.0 mm 0.00 in0.0 mm 0.00 in0.0 mm
02:33 PM 40.4°F4.7°C 36.5°F2.5°C 86% 6.0 mph NE9.7 kmh NE 15.0 mph24.1 kmh 30.04 in1017.3 mb 0.00 in0.0 mm 0.00 in0.0 mm 0.00 in0.0 mm
02:38 PM 40.4°F4.7°C 36.5°F2.5°C 86% 6.0 mph NE9.7 kmh NE 15.0 mph24.1 kmh 30.05 in1017.6 mb 0.00 in0.0 mm 0.00 in0.0 mm 0.00 in0.0 mm
02:43 PM 40.4°F4.7°C 36.5°F2.5°C 86% 7.0 mph ENE11.3 kmh ENE 15.0 mph24.1 kmh 30.05 in1017.6 mb 0.00 in0.0 mm 0.00 in0.0 mm 0.00 in0.0 mm
02:48 PM 40.3°F4.6°C 36.4°F2.4°C 86% 9.0 mph NE14.5 kmh NE 15.0 mph24.1 kmh 30.05 in1017.6 mb 0.00 in0.0 mm 0.00 in0.0 mm 0.00 in0.0 mm
02:53 PM 40.3°F4.6°C 36.4°F2.4°C 86% 11.0 mph NE17.7 kmh NE 15.0 mph24.1 kmh 30.05 in1017.6 mb 0.00 in0.0 mm 0.00 in0.0 mm 0.00 in0.0 mm
02:58 PM 40.3°F4.6°C 36.7°F2.6°C 87% 6.0 mph NE9.7 kmh NE 15.0 mph24.1 kmh 30.05 in1017.6 mb 0.00 in0.0 mm 0.00 in0.0 mm 0.00 in0.0 mm
03:03 PM 40.2°F4.6°C 36.6°F2.6°C 87% 5.0 mph NE8.0 kmh NE 15.0 mph24.1 kmh 30.05 in1017.6 mb 0.00 in0.0 mm 0.00 in0.0 mm 0.00 in0.0 mm
03:08 PM 40.2°F4.6°C 36.6°F2.6°C 87% 7.0 mph NE11.3 kmh NE 13.0 mph20.9 kmh 30.06 in1017.9 mb 0.00 in0.0 mm 0.00 in0.0 mm 0.00 in0.0 mm
03:13 PM 40.2°F4.6°C 36.6°F2.6°C 87% 9.0 mph NE14.5 kmh NE 16.0 mph25.7 kmh 30.05 in1017.6 mb 0.00 in0.0 mm 0.00 in0.0 mm 0.00 in0.0 mm
03:18 PM 40.2°F4.6°C 36.6°F2.6°C 87% 12.0 mph NE19.3 kmh NE 16.0 mph25.7 kmh 30.05 in1017.6 mb 0.00 in0.0 mm 0.00 in0.0 mm 0.00 in0.0 mm
03:23 PM 40.2°F4.6°C 36.6°F2.6°C 87% 6.0 mph NE9.7 kmh NE 19.0 mph30.6 kmh 30.05 in1017.6 mb 0.00 in0.0 mm 0.00 in0.0 mm 0.00 in0.0 mm
03:28 PM 40.2°F4.6°C 36.6°F2.6°C 87% 12.0 mph NNE19.3 kmh NNE 19.0 mph30.6 kmh 30.05 in1017.6 mb 0.00 in0.0 mm 0.00 in0.0 mm 0.00 in0.0 mm
03:33 PM 40.1°F4.5°C 36.5°F2.5°C 87% 8.0 mph NE12.9 kmh NE 19.0 mph30.6 kmh 30.05 in1017.6 mb 0.00 in0.0 mm 0.00 in0.0 mm 0.00 in0.0 mm
03:38 PM 40.0°F4.4°C 36.4°F2.4°C 87% 11.0 mph NE17.7 kmh NE 19.0 mph30.6 kmh 30.05 in1017.6 mb 0.00 in0.0 mm 0.00 in0.0 mm 0.00 in0.0 mm
03:43 PM 40.0°F4.4°C 36.4°F2.4°C 87% 11.0 mph NE17.7 kmh NE 18.0 mph29.0 kmh 30.05 in1017.6 mb 0.00 in0.0 mm 0.00 in0.0 mm 0.00 in0.0 mm
03:48 PM 39.9°F4.4°C 36.4°F2.4°C 87% 5.0 mph NE8.0 kmh NE 18.0 mph29.0 kmh 30.05 in1017.6 mb 0.00 in0.0 mm 0.00 in0.0 mm 0.00 in0.0 mm
03:53 PM 39.8°F4.3°C 36.3°F2.4°C 87% 10.0 mph ENE16.1 kmh ENE 18.0 mph29.0 kmh 30.06 in1017.9 mb 0.00 in0.0 mm 0.00 in0.0 mm 0.00 in0.0 mm
03:58 PM 39.7°F4.3°C 36.2°F2.3°C 87% 10.0 mph NE16.1 kmh NE 22.0 mph35.4 kmh 30.05 in1017.6 mb 0.00 in0.0 mm 0.00 in0.0 mm 0.00 in0.0 mm
04:03 PM 39.6°F4.2°C 36.1°F2.3°C 87% 9.0 mph ENE14.5 kmh ENE 22.0 mph35.4 kmh 30.05 in1017.6 mb 0.00 in0.0 mm 0.00 in0.0 mm 0.00 in0.0 mm
04:08 PM 39.6°F4.2°C 36.4°F2.4°C 88% 9.0 mph E14.5 kmh E 22.0 mph35.4 kmh 30.05 in1017.6 mb 0.00 in0.0 mm 0.00 in0.0 mm 0.00 in0.0 mm
04:13 PM 39.5°F4.2°C 36.3°F2.4°C 88% 15.0 mph ENE24.1 kmh ENE 22.0 mph35.4 kmh 30.05 in1017.6 mb 0.00 in0.0 mm 0.00 in0.0 mm 0.00 in0.0 mm
04:18 PM 39.5°F4.2°C 36.0°F2.2°C 87% 11.0 mph NE17.7 kmh NE 22.0 mph35.4 kmh 30.05 in1017.6 mb 0.00 in0.0 mm 0.00 in0.0 mm 0.00 in0.0 mm
04:23 PM 39.4°F4.1°C 36.2°F2.3°C 88% 10.0 mph NE16.1 kmh NE 23.0 mph37.0 kmh 30.06 in1017.9 mb 0.00 in0.0 mm 0.00 in0.0 mm 0.00 in0.0 mm
04:28 PM 39.4°F4.1°C 36.2°F2.3°C 88% 10.0 mph NE16.1 kmh NE 23.0 mph37.0 kmh 30.05 in1017.6 mb 0.00 in0.0 mm 0.00 in0.0 mm 0.00 in0.0 mm
04:33 PM 39.4°F4.1°C 36.2°F2.3°C 88% 9.0 mph NE14.5 kmh NE 23.0 mph37.0 kmh 30.05 in1017.6 mb 0.00 in0.0 mm 0.00 in0.0 mm 0.00 in0.0 mm
04:38 PM 39.3°F4.1°C 36.1°F2.3°C 88% 10.0 mph NE16.1 kmh NE 23.0 mph37.0 kmh 30.06 in1017.9 mb 0.00 in0.0 mm 0.00 in0.0 mm 0.00 in0.0 mm
04:43 PM 39.3°F4.1°C 36.1°F2.3°C 88% 8.0 mph NE12.9 kmh NE 26.0 mph41.8 kmh 30.06 in1017.9 mb 0.00 in0.0 mm 0.00 in0.0 mm 0.00 in0.0 mm
04:48 PM 39.3°F4.1°C 36.1°F2.3°C 88% 10.0 mph NE16.1 kmh NE 26.0 mph41.8 kmh 30.06 in1017.9 mb 0.00 in0.0 mm 0.00 in0.0 mm 0.00 in0.0 mm
04:53 PM 39.3°F4.1°C 36.1°F2.3°C 88% 12.0 mph ENE19.3 kmh ENE 26.0 mph41.8 kmh 30.06 in1017.9 mb 0.00 in0.0 mm 0.00 in0.0 mm 0.00 in0.0 mm
04:58 PM 39.3°F4.1°C 36.1°F2.3°C 88% 11.0 mph NE17.7 kmh NE 26.0 mph41.8 kmh 30.06 in1017.9 mb 0.00 in0.0 mm 0.00 in0.0 mm 0.00 in0.0 mm
05:03 PM 39.3°F4.1°C 36.1°F2.3°C 88% 15.0 mph ENE24.1 kmh ENE 23.0 mph37.0 kmh 30.05 in1017.6 mb 0.00 in0.0 mm 0.00 in0.0 mm 0.00 in0.0 mm
05:08 PM 39.4°F4.1°C 36.2°F2.3°C 88% 18.0 mph NE29.0 kmh NE 23.0 mph37.0 kmh 30.05 in1017.6 mb 0.00 in0.0 mm 0.00 in0.0 mm 0.00 in0.0 mm
05:13 PM 39.4°F4.1°C 36.2°F2.3°C 88% 12.0 mph ENE19.3 kmh ENE 23.0 mph37.0 kmh 30.05 in1017.6 mb 0.00 in0.0 mm 0.00 in0.0 mm 0.00 in0.0 mm
05:18 PM 39.4°F4.1°C 36.2°F2.3°C 88% 9.0 mph NE14.5 kmh NE 23.0 mph37.0 kmh 30.06 in1017.9 mb 0.00 in0.0 mm 0.00 in0.0 mm 0.00 in0.0 mm
05:23 PM 39.4°F4.1°C 35.9°F2.2°C 87% 14.0 mph ENE22.5 kmh ENE 23.0 mph37.0 kmh 30.06 in1017.9 mb 0.00 in0.0 mm 0.00 in0.0 mm 0.00 in0.0 mm
05:28 PM 39.4°F4.1°C 35.9°F2.2°C 87% 17.0 mph NE27.4 kmh NE 25.0 mph40.2 kmh 30.06 in1017.9 mb 0.00 in0.0 mm 0.00 in0.0 mm 0.00 in0.0 mm
05:33 PM 39.3°F4.1°C 35.8°F2.1°C 87% 13.0 mph ENE20.9 kmh ENE 25.0 mph40.2 kmh 30.06 in1017.9 mb 0.00 in0.0 mm 0.00 in0.0 mm 0.00 in0.0 mm
05:38 PM 39.3°F4.1°C 35.8°F2.1°C 87% 9.0 mph NE14.5 kmh NE 25.0 mph40.2 kmh 30.06 in1017.9 mb 0.00 in0.0 mm 0.00 in0.0 mm 0.00 in0.0 mm
05:43 PM 39.3°F4.1°C 35.8°F2.1°C 87% 15.0 mph ENE24.1 kmh ENE 25.0 mph40.2 kmh 30.06 in1017.9 mb 0.00 in0.0 mm 0.00 in0.0 mm 0.00 in0.0 mm
05:48 PM 39.3°F4.1°C 35.8°F2.1°C 87% 11.0 mph NE17.7 kmh NE 17.0 mph27.4 kmh 30.05 in1017.6 mb 0.00 in0.0 mm 0.00 in0.0 mm 0.00 in0.0 mm
05:53 PM 39.3°F4.1°C 35.8°F2.1°C 87% 12.0 mph NE19.3 kmh NE 22.0 mph35.4 kmh 30.06 in1017.9 mb 0.00 in0.0 mm 0.00 in0.0 mm 0.00 in0.0 mm
05:58 PM 39.3°F4.1°C 35.8°F2.1°C 87% 14.0 mph ENE22.5 kmh ENE 26.0 mph41.8 kmh 30.06 in1017.9 mb 0.00 in0.0 mm 0.00 in0.0 mm 0.00 in0.0 mm
06:03 PM 39.4°F4.1°C 35.9°F2.2°C 87% 11.0 mph NE17.7 kmh NE 26.0 mph41.8 kmh 30.06 in1017.9 mb 0.00 in0.0 mm 0.00 in0.0 mm 0.00 in0.0 mm
06:08 PM 39.4°F4.1°C 35.9°F2.2°C 87% 16.0 mph NE25.7 kmh NE 26.0 mph41.8 kmh 30.06 in1017.9 mb 0.00 in0.0 mm 0.00 in0.0 mm 0.00 in0.0 mm
06:13 PM 39.4°F4.1°C 35.9°F2.2°C 87% 13.0 mph NE20.9 kmh NE 26.0 mph41.8 kmh 30.06 in1017.9 mb 0.00 in0.0 mm 0.00 in0.0 mm 0.00 in0.0 mm
06:18 PM 39.4°F4.1°C 35.9°F2.2°C 87% 12.0 mph NE19.3 kmh NE 26.0 mph41.8 kmh 30.06 in1017.9 mb 0.00 in0.0 mm 0.00 in0.0 mm 0.00 in0.0 mm
06:23 PM 39.3°F4.1°C 35.8°F2.1°C 87% 11.0 mph NE17.7 kmh NE 26.0 mph41.8 kmh 30.06 in1017.9 mb 0.00 in0.0 mm 0.00 in0.0 mm 0.00 in0.0 mm
06:28 PM 39.4°F4.1°C 35.9°F2.2°C 87% 12.0 mph ENE19.3 kmh ENE 26.0 mph41.8 kmh 30.06 in1017.9 mb 0.00 in0.0 mm 0.00 in0.0 mm 0.00 in0.0 mm
06:33 PM 39.4°F4.1°C 35.9°F2.2°C 87% 7.0 mph NE11.3 kmh NE 26.0 mph41.8 kmh 30.06 in1017.9 mb 0.00 in0.0 mm 0.00 in0.0 mm 0.00 in0.0 mm
06:38 PM 39.4°F4.1°C 35.9°F2.2°C 87% 14.0 mph NE22.5 kmh NE 21.0 mph33.8 kmh 30.05 in1017.6 mb 0.00 in0.0 mm 0.00 in0.0 mm 0.00 in0.0 mm
06:43 PM 39.4°F4.1°C 35.9°F2.2°C 87% 13.0 mph NE20.9 kmh NE 21.0 mph33.8 kmh 30.05 in1017.6 mb 0.00 in0.0 mm 0.00 in0.0 mm 0.00 in0.0 mm
06:48 PM 39.4°F4.1°C 35.9°F2.2°C 87% 12.0 mph ENE19.3 kmh ENE 22.0 mph35.4 kmh 30.05 in1017.6 mb 0.00 in0.0 mm 0.00 in0.0 mm 0.00 in0.0 mm
06:53 PM 39.4°F4.1°C 35.9°F2.2°C 87% 16.0 mph NE25.7 kmh NE 22.0 mph35.4 kmh 30.05 in1017.6 mb 0.00 in0.0 mm 0.00 in0.0 mm 0.00 in0.0 mm
06:58 PM 39.4°F4.1°C 35.9°F2.2°C 87% 18.0 mph NE29.0 kmh NE 22.0 mph35.4 kmh 30.05 in1017.6 mb 0.00 in0.0 mm 0.00 in0.0 mm 0.00 in0.0 mm
07:03 PM 39.4°F4.1°C 35.9°F2.2°C 87% 13.0 mph ENE20.9 kmh ENE 22.0 mph35.4 kmh 30.05 in1017.6 mb 0.00 in0.0 mm 0.00 in0.0 mm 0.00 in0.0 mm
07:08 PM 39.5°F4.2°C 36.0°F2.2°C 87% 12.0 mph ENE19.3 kmh ENE 23.0 mph37.0 kmh 30.07 in1018.3 mb 0.00 in0.0 mm 0.00 in0.0 mm 0.00 in0.0 mm
07:13 PM 39.5°F4.2°C 36.0°F2.2°C 87% 14.0 mph NE22.5 kmh NE 23.0 mph37.0 kmh 30.07 in1018.3 mb 0.00 in0.0 mm 0.00 in0.0 mm 0.00 in0.0 mm
07:18 PM 39.6°F4.2°C 36.1°F2.3°C 87% 10.0 mph ENE16.1 kmh ENE 23.0 mph37.0 kmh 30.06 in1017.9 mb 0.00 in0.0 mm 0.00 in0.0 mm 0.00 in0.0 mm
07:23 PM 39.6°F4.2°C 36.1°F2.3°C 87% 7.0 mph ENE11.3 kmh ENE 23.0 mph37.0 kmh 30.07 in1018.3 mb 0.00 in0.0 mm 0.00 in0.0 mm 0.00 in0.0 mm
07:28 PM 39.6°F4.2°C 36.1°F2.3°C 87% 11.0 mph NE17.7 kmh NE 19.0 mph30.6 kmh 30.07 in1018.3 mb 0.00 in0.0 mm 0.00 in0.0 mm 0.01 in0.3 mm
07:33 PM 39.5°F4.2°C 36.0°F2.2°C 87% 11.0 mph NE17.7 kmh NE 20.0 mph32.2 kmh 30.07 in1018.3 mb 0.13 in3.3 mm 1.56 in39.6 mm 0.02 in0.5 mm
07:38 PM 39.5°F4.2°C 36.0°F2.2°C 87% 9.0 mph NE14.5 kmh NE 20.0 mph32.2 kmh 30.07 in1018.3 mb 0.11 in2.8 mm 0.00 in0.0 mm 0.03 in0.8 mm
07:43 PM 39.5°F4.2°C 36.0°F2.2°C 87% 15.0 mph NE24.1 kmh NE 20.0 mph32.2 kmh 30.07 in1018.3 mb 0.11 in2.8 mm 0.00 in0.0 mm 0.04 in1.0 mm
07:48 PM 39.4°F4.1°C 35.9°F2.2°C 87% 6.0 mph NE9.7 kmh NE 20.0 mph32.2 kmh 30.07 in1018.3 mb 0.07 in1.8 mm 0.00 in0.0 mm 0.04 in1.0 mm
07:53 PM 39.4°F4.1°C 36.2°F2.3°C 88% 9.0 mph NE14.5 kmh NE 20.0 mph32.2 kmh 30.07 in1018.3 mb 0.05 in1.3 mm 0.00 in0.0 mm 0.05 in1.3 mm
07:58 PM 39.4°F4.1°C 36.2°F2.3°C 88% 12.0 mph NE19.3 kmh NE 20.0 mph32.2 kmh 30.07 in1018.3 mb 0.05 in1.3 mm 0.00 in0.0 mm 0.05 in1.3 mm
08:03 PM 39.3°F4.1°C 36.1°F2.3°C 88% 12.0 mph NE19.3 kmh NE 19.0 mph30.6 kmh 30.07 in1018.3 mb 0.05 in1.3 mm 0.00 in0.0 mm 0.05 in1.3 mm
08:08 PM 39.3°F4.1°C 36.1°F2.3°C 88% 11.0 mph ENE17.7 kmh ENE 19.0 mph30.6 kmh 30.07 in1018.3 mb 0.04 in1.0 mm 0.00 in0.0 mm 0.06 in1.5 mm
08:13 PM 39.3°F4.1°C 36.1°F2.3°C 88% 14.0 mph NE22.5 kmh NE 19.0 mph30.6 kmh 30.07 in1018.3 mb 0.04 in1.0 mm 0.00 in0.0 mm 0.06 in1.5 mm
08:18 PM 39.2°F4.0°C 36.0°F2.2°C 88% 10.0 mph NE16.1 kmh NE 22.0 mph35.4 kmh 30.07 in1018.3 mb 0.04 in1.0 mm 0.00 in0.0 mm 0.06 in1.5 mm
08:23 PM 39.2°F4.0°C 36.0°F2.2°C 88% 9.0 mph NE14.5 kmh NE 22.0 mph35.4 kmh 30.07 in1018.3 mb 0.04 in1.0 mm 0.00 in0.0 mm 0.06 in1.5 mm
08:28 PM 39.2°F4.0°C 36.0°F2.2°C 88% 10.0 mph NE16.1 kmh NE 22.0 mph35.4 kmh 30.07 in1018.3 mb 0.00 in0.0 mm 0.00 in0.0 mm 0.06 in1.5 mm
08:33 PM 39.2°F4.0°C 36.0°F2.2°C 88% 10.0 mph NE16.1 kmh NE 22.0 mph35.4 kmh 30.07 in1018.3 mb 0.00 in0.0 mm 0.00 in0.0 mm 0.07 in1.8 mm
08:38 PM 39.2°F4.0°C 36.0°F2.2°C 88% 8.0 mph NE12.9 kmh NE 20.0 mph32.2 kmh 30.07 in1018.3 mb 0.00 in0.0 mm 0.00 in0.0 mm 0.07 in1.8 mm
08:43 PM 39.2°F4.0°C 36.0°F2.2°C 88% 17.0 mph NE27.4 kmh NE 20.0 mph32.2 kmh 30.07 in1018.3 mb 0.06 in1.5 mm 0.72 in18.3 mm 0.08 in2.0 mm
08:48 PM 39.2°F4.0°C 36.0°F2.2°C 88% 13.0 mph NE20.9 kmh NE 20.0 mph32.2 kmh 30.07 in1018.3 mb 0.09 in2.3 mm 0.36 in9.1 mm 0.09 in2.3 mm
08:53 PM 39.2°F4.0°C 36.0°F2.2°C 88% 12.0 mph NE19.3 kmh NE 20.0 mph32.2 kmh 30.07 in1018.3 mb 0.10 in2.5 mm 0.12 in3.0 mm 0.09 in2.3 mm
08:58 PM 39.3°F4.1°C 36.1°F2.3°C 88% 13.0 mph NE20.9 kmh NE 21.0 mph33.8 kmh 30.07 in1018.3 mb 0.13 in3.3 mm 0.36 in9.1 mm 0.10 in2.5 mm
09:03 PM 39.2°F4.0°C 36.0°F2.2°C 88% 13.0 mph ENE20.9 kmh ENE 21.0 mph33.8 kmh 30.06 in1017.9 mb 0.21 in5.3 mm 0.09 in2.3 mm 0.12 in3.0 mm
09:08 PM 39.3°F4.1°C 36.1°F2.3°C 88% 16.0 mph NE25.7 kmh NE 21.0 mph33.8 kmh 30.06 in1017.9 mb 0.29 in7.4 mm 0.96 in24.4 mm 0.14 in3.6 mm
09:13 PM 39.3°F4.1°C 36.1°F2.3°C 88% 13.0 mph NE20.9 kmh NE 23.0 mph37.0 kmh 30.06 in1017.9 mb 0.19 in4.8 mm 0.00 in0.0 mm 0.15 in3.8 mm
09:18 PM 39.2°F4.0°C 36.3°F2.4°C 89% 15.0 mph NE24.1 kmh NE 23.0 mph37.0 kmh 30.05 in1017.6 mb 0.17 in4.3 mm 0.00 in0.0 mm 0.17 in4.3 mm
09:23 PM 39.2°F4.0°C 36.3°F2.4°C 89% 11.0 mph NE17.7 kmh NE 23.0 mph37.0 kmh 30.05 in1017.6 mb 0.15 in3.8 mm 0.00 in0.0 mm 0.18 in4.6 mm
09:28 PM 39.2°F4.0°C 36.3°F2.4°C 89% 8.0 mph NE12.9 kmh NE 23.0 mph37.0 kmh 30.05 in1017.6 mb 0.17 in4.3 mm 0.24 in6.1 mm 0.20 in5.1 mm
09:33 PM 39.1°F3.9°C 36.2°F2.3°C 89% 8.0 mph NNE12.9 kmh NNE 21.0 mph33.8 kmh 30.05 in1017.6 mb 0.12 in3.0 mm 0.00 in0.0 mm 0.21 in5.3 mm
09:38 PM 39.1°F3.9°C 36.2°F2.3°C 89% 9.0 mph NE14.5 kmh NE 21.0 mph33.8 kmh 30.04 in1017.3 mb 0.10 in2.5 mm 0.00 in0.0 mm 0.21 in5.3 mm
09:43 PM 39.1°F3.9°C 36.2°F2.3°C 89% 17.0 mph ENE27.4 kmh ENE 26.0 mph41.8 kmh 30.04 in1017.3 mb 0.10 in2.5 mm 0.00 in0.0 mm 0.22 in5.6 mm
09:48 PM 39.1°F3.9°C 36.2°F2.3°C 89% 11.0 mph N17.7 kmh N 26.0 mph41.8 kmh 30.04 in1017.3 mb 0.08 in2.0 mm 0.00 in0.0 mm 0.23 in5.8 mm
09:53 PM 39.0°F3.9°C 36.1°F2.3°C 89% 15.0 mph NE24.1 kmh NE 26.0 mph41.8 kmh 30.04 in1017.3 mb 0.08 in2.0 mm 0.00 in0.0 mm 0.23 in5.8 mm
09:58 PM 39.0°F3.9°C 36.1°F2.3°C 89% 21.0 mph NE33.8 kmh NE 26.0 mph41.8 kmh 30.05 in1017.6 mb 0.08 in2.0 mm 0.00 in0.0 mm 0.24 in6.1 mm
10:03 PM 39.0°F3.9°C 36.1°F2.3°C 89% 13.0 mph NE20.9 kmh NE 24.0 mph38.6 kmh 30.04 in1017.3 mb 0.06 in1.5 mm 0.00 in0.0 mm 0.24 in6.1 mm
10:08 PM 38.9°F3.8°C 36.0°F2.2°C 89% 19.0 mph NE30.6 kmh NE 24.0 mph38.6 kmh 30.04 in1017.3 mb 0.04 in1.0 mm 0.00 in0.0 mm 0.24 in6.1 mm
10:13 PM 38.9°F3.8°C 36.0°F2.2°C 89% 10.0 mph NE16.1 kmh NE 24.0 mph38.6 kmh 30.05 in1017.6 mb 0.00 in0.0 mm 0.00 in0.0 mm 0.24 in6.1 mm
10:18 PM 38.9°F3.8°C 36.0°F2.2°C 89% 10.0 mph NE16.1 kmh NE 24.0 mph38.6 kmh 30.05 in1017.6 mb 0.00 in0.0 mm 0.00 in0.0 mm 0.24 in6.1 mm
10:23 PM 38.9°F3.8°C 36.0°F2.2°C 89% 13.0 mph NE20.9 kmh NE 18.0 mph29.0 kmh 30.05 in1017.6 mb 0.00 in0.0 mm 0.00 in0.0 mm 0.24 in6.1 mm
10:28 PM 38.8°F3.8°C 35.9°F2.2°C 89% 18.0 mph ENE29.0 kmh ENE 26.0 mph41.8 kmh 30.04 in1017.3 mb 0.00 in0.0 mm 0.00 in0.0 mm 0.24 in6.1 mm
10:33 PM 38.8°F3.8°C 35.9°F2.2°C 89% 11.0 mph NE17.7 kmh NE 26.0 mph41.8 kmh 30.04 in1017.3 mb 0.00 in0.0 mm 0.00 in0.0 mm 0.24 in6.1 mm
10:38 PM 38.8°F3.8°C 35.9°F2.2°C 89% 16.0 mph ENE25.7 kmh ENE 26.0 mph41.8 kmh 30.05 in1017.6 mb 0.00 in0.0 mm 0.00 in0.0 mm 0.24 in6.1 mm
10:43 PM 38.8°F3.8°C 35.9°F2.2°C 89% 12.0 mph NE19.3 kmh NE 26.0 mph41.8 kmh 30.05 in1017.6 mb 0.00 in0.0 mm 0.00 in0.0 mm 0.24 in6.1 mm
10:48 PM 38.8°F3.8°C 35.9°F2.2°C 89% 19.0 mph ENE30.6 kmh ENE 26.0 mph41.8 kmh 30.04 in1017.3 mb 0.00 in0.0 mm 0.00 in0.0 mm 0.24 in6.1 mm
10:53 PM 38.7°F3.7°C 35.8°F2.1°C 89% 20.0 mph NE32.2 kmh NE 26.0 mph41.8 kmh 30.04 in1017.3 mb 0.00 in0.0 mm 0.00 in0.0 mm 0.24 in6.1 mm
10:58 PM 38.7°F3.7°C 35.8°F2.1°C 89% 12.0 mph NE19.3 kmh NE 25.0 mph40.2 kmh 30.04 in1017.3 mb 0.00 in0.0 mm 0.00 in0.0 mm 0.24 in6.1 mm
11:03 PM 38.7°F3.7°C 35.8°F2.1°C 89% 11.0 mph NE17.7 kmh NE 29.0 mph46.7 kmh 30.04 in1017.3 mb 0.00 in0.0 mm 0.00 in0.0 mm 0.25 in6.4 mm
11:08 PM 38.6°F3.7°C 35.7°F2.1°C 89% 22.0 mph ENE35.4 kmh ENE 29.0 mph46.7 kmh 30.04 in1017.3 mb 0.00 in0.0 mm 0.00 in0.0 mm 0.25 in6.4 mm
11:13 PM 38.6°F3.7°C 35.7°F2.1°C 89% 12.0 mph ENE19.3 kmh ENE 29.0 mph46.7 kmh 30.04 in1017.3 mb 0.00 in0.0 mm 0.00 in0.0 mm 0.25 in6.4 mm
11:18 PM 38.6°F3.7°C 35.7°F2.1°C 89% 14.0 mph NE22.5 kmh NE 29.0 mph46.7 kmh 30.03 in1016.9 mb 0.00 in0.0 mm 0.00 in0.0 mm 0.25 in6.4 mm
11:23 PM 38.5°F3.6°C 35.6°F2.0°C 89% 15.0 mph ENE24.1 kmh ENE 28.0 mph45.1 kmh 30.03 in1016.9 mb 0.00 in0.0 mm 0.00 in0.0 mm 0.25 in6.4 mm
11:28 PM 38.5°F3.6°C 35.6°F2.0°C 89% 13.0 mph NE20.9 kmh NE 28.0 mph45.1 kmh 30.03 in1016.9 mb 0.00 in0.0 mm 0.00 in0.0 mm 0.25 in6.4 mm
11:33 PM 38.5°F3.6°C 35.6°F2.0°C 89% 14.0 mph ENE22.5 kmh ENE 23.0 mph37.0 kmh 30.03 in1016.9 mb 0.00 in0.0 mm 0.00 in0.0 mm 0.25 in6.4 mm
11:38 PM 38.5°F3.6°C 35.6°F2.0°C 89% 13.0 mph ENE20.9 kmh ENE 25.0 mph40.2 kmh 30.02 in1016.6 mb 0.00 in0.0 mm 0.00 in0.0 mm 0.25 in6.4 mm
11:43 PM 38.5°F3.6°C 35.6°F2.0°C 89% 19.0 mph NE30.6 kmh NE 25.0 mph40.2 kmh 30.02 in1016.6 mb 0.00 in0.0 mm 0.00 in0.0 mm 0.25 in6.4 mm
11:48 PM 38.5°F3.6°C 35.6°F2.0°C 89% 12.0 mph NE19.3 kmh NE 27.0 mph43.5 kmh 30.02 in1016.6 mb 0.00 in0.0 mm 0.00 in0.0 mm 0.25 in6.4 mm
11:53 PM 38.5°F3.6°C 35.6°F2.0°C 89% 12.0 mph ENE19.3 kmh ENE 27.0 mph43.5 kmh 30.02 in1016.6 mb 0.00 in0.0 mm 0.00 in0.0 mm 0.25 in6.4 mm
11:58 PM 38.5°F3.6°C 35.6°F2.0°C 89% 12.0 mph NE19.3 kmh NE 27.0 mph43.5 kmh 30.02 in1016.6 mb 0.00 in0.0 mm 0.00 in0.0 mm 0.25 in6.4 mm